createdAt,value
2023-02-01T00:00:49.349Z,1.98
2023-02-01T00:02:12.796Z,2.53
2023-02-01T00:03:36.294Z,2.97
2023-02-01T00:04:58.807Z,2.40
2023-02-01T00:06:22.298Z,3.03
2023-02-01T00:07:48.463Z,2.95
2023-02-01T00:09:10.890Z,2.17
2023-02-01T00:10:34.359Z,2.15
2023-02-01T00:12:00.380Z,1.85
2023-02-01T00:13:25.183Z,2.38
2023-02-01T00:14:49.383Z,2.83
2023-02-01T00:16:13.411Z,2.10
2023-02-01T00:17:37.746Z,2.63
2023-02-01T00:19:03.157Z,2.33
2023-02-01T00:20:26.547Z,1.83
2023-02-01T00:21:49.994Z,2.60
2023-02-01T00:23:12.404Z,1.75
2023-02-01T00:24:35.814Z,1.90
2023-02-01T00:26:01.725Z,2.67
2023-02-01T00:27:25.143Z,2.05
2023-02-01T00:28:49.969Z,2.80
2023-02-01T00:30:13.366Z,2.85
2023-02-01T00:31:36.922Z,2.15
2023-02-01T00:33:00.396Z,2.20
2023-02-01T00:34:23.864Z,2.47
2023-02-01T00:35:46.304Z,2.80
2023-02-01T00:37:09.789Z,2.58
2023-02-01T00:38:33.229Z,2.47
2023-02-01T00:39:56.844Z,1.75
2023-02-01T00:41:21.372Z,2.10
2023-02-01T00:42:44.803Z,2.10
2023-02-01T00:44:08.714Z,2.35
2023-02-01T00:45:32.142Z,2.35
2023-02-01T00:46:55.681Z,1.85
2023-02-01T00:48:18.178Z,2.13
2023-02-01T00:49:41.583Z,2.50
2023-02-01T00:51:05.567Z,2.10
2023-02-01T00:52:28.995Z,1.80
2023-02-01T00:53:51.726Z,1.38
2023-02-01T00:55:15.198Z,1.50
2023-02-01T00:56:38.813Z,1.58
2023-02-01T00:58:02.204Z,1.80
2023-02-01T00:59:27.010Z,2.17
2023-02-01T01:00:50.468Z,1.98
2023-02-01T01:02:15.340Z,2.03
2023-02-01T01:03:40.271Z,1.90
2023-02-01T01:05:03.818Z,1.88
2023-02-01T01:06:29.258Z,1.52
2023-02-01T01:07:51.880Z,2.40
2023-02-01T01:09:15.281Z,2.13
2023-02-01T01:10:37.702Z,1.92
2023-02-01T01:12:03.458Z,1.30
2023-02-01T01:13:26.510Z,2.15
2023-02-01T01:14:51.449Z,2.25
2023-02-01T01:16:15.206Z,1.52
2023-02-01T01:17:37.682Z,1.75
2023-02-01T01:19:01.867Z,2.20
2023-02-01T01:20:24.267Z,1.65
2023-02-01T01:21:47.752Z,2.30
2023-02-01T01:23:10.399Z,1.95
2023-02-01T01:24:33.895Z,2.42
2023-02-01T01:25:56.618Z,3.10
2023-02-01T01:27:24.325Z,2.08
2023-02-01T01:28:47.103Z,2.80
2023-02-01T01:30:14.121Z,2.03
2023-02-01T01:31:37.667Z,2.33
2023-02-01T01:33:00.145Z,1.30
2023-02-01T01:34:23.747Z,1.77
2023-02-01T01:35:46.182Z,2.25
2023-02-01T01:37:09.865Z,2.97
2023-02-01T01:38:32.323Z,2.33
2023-02-01T01:39:56.785Z,1.60
2023-02-01T01:41:22.342Z,1.95
2023-02-01T01:42:45.564Z,1.98
2023-02-01T01:44:24.508Z,1.73
2023-02-01T01:45:49.518Z,1.73
2023-02-01T01:47:12.997Z,2.00
2023-02-01T01:48:35.698Z,1.90
2023-02-01T01:49:59.310Z,2.47
2023-02-01T01:51:24.453Z,1.55
2023-02-01T01:52:49.423Z,1.98
2023-02-01T01:54:18.117Z,2.17
2023-02-01T01:55:44.466Z,2.10
2023-02-01T01:57:10.547Z,1.42
2023-02-01T01:58:34.879Z,1.92
2023-02-01T02:00:01.928Z,1.60
2023-02-01T02:01:26.899Z,2.35
2023-02-01T02:02:54.334Z,2.10
2023-02-01T05:41:38.287Z,2.08
2023-02-01T05:43:01.747Z,2.28
2023-02-01T05:44:25.363Z,2.72
2023-02-01T05:45:48.819Z,1.92
2023-02-01T05:47:13.457Z,2.50
2023-02-01T05:48:36.945Z,2.53
2023-02-01T05:50:00.704Z,2.10
2023-02-01T05:51:24.156Z,1.80
2023-02-01T05:52:47.830Z,3.20
2023-02-01T05:54:12.360Z,3.35
2023-02-01T05:55:35.801Z,2.35
2023-02-01T05:56:59.911Z,2.25
2023-02-01T05:58:23.600Z,2.70
2023-02-01T05:59:48.407Z,2.47
2023-02-01T06:01:12.320Z,2.83
2023-02-01T06:02:35.848Z,3.13
2023-02-01T06:03:58.420Z,2.63
2023-02-01T06:05:21.927Z,2.60
2023-02-01T06:06:45.330Z,2.50
2023-02-01T06:08:09.830Z,1.98
2023-02-01T06:09:33.356Z,3.10
2023-02-01T06:10:59.683Z,2.60
2023-02-01T06:12:24.554Z,2.50
2023-02-01T06:13:48.039Z,3.03
2023-02-01T06:15:11.227Z,2.33
2023-02-01T06:16:34.794Z,2.78
2023-02-01T06:17:57.330Z,2.05
2023-02-01T06:19:20.861Z,1.80
2023-02-01T06:20:44.944Z,2.55
2023-02-01T06:22:08.365Z,2.25
2023-02-01T06:23:32.728Z,2.03
2023-02-01T06:24:56.206Z,2.00
2023-02-01T06:26:20.050Z,1.83
2023-02-01T06:27:45.623Z,2.88
2023-02-01T06:29:09.151Z,2.70
2023-02-01T06:30:32.625Z,2.92
2023-02-01T06:31:55.279Z,2.33
2023-02-01T06:33:19.190Z,2.47
2023-02-01T06:34:42.629Z,2.97
2023-02-01T06:36:07.396Z,2.38
2023-02-01T06:37:32.888Z,2.55
2023-02-01T06:38:57.468Z,2.83
2023-02-01T06:40:21.131Z,2.22
2023-02-01T06:41:44.859Z,1.98
2023-02-01T06:43:11.714Z,2.97
2023-02-01T06:44:35.183Z,2.38
2023-02-01T06:46:02.553Z,2.08
2023-02-01T06:47:26.006Z,2.45
2023-02-01T06:48:50.385Z,2.88
2023-02-01T06:50:13.937Z,2.30
2023-02-01T06:51:37.510Z,2.63
2023-02-01T06:53:00.940Z,2.58
2023-02-01T06:54:24.523Z,2.05
2023-02-01T06:55:54.908Z,1.98
2023-02-01T06:57:18.451Z,2.88
2023-02-01T06:58:43.310Z,2.13
2023-02-01T07:00:07.948Z,1.73
2023-02-01T07:01:31.539Z,2.58
2023-02-01T07:02:54.969Z,1.63
2023-02-01T07:04:18.450Z,2.25
2023-02-01T07:05:41.971Z,3.15
2023-02-01T07:07:05.808Z,3.20
2023-02-01T07:08:30.463Z,2.15
2023-02-01T07:09:55.132Z,2.90
2023-02-01T07:11:20.530Z,2.70
2023-02-01T07:12:43.983Z,2.35
2023-02-01T07:14:08.058Z,2.90
2023-02-01T07:15:31.678Z,1.98
2023-02-01T07:16:55.175Z,2.25
2023-02-01T07:18:18.689Z,2.03
2023-02-01T07:19:42.238Z,2.22
2023-02-01T07:21:06.343Z,1.63
2023-02-01T07:22:30.150Z,2.50
2023-02-01T07:23:53.626Z,3.10
2023-02-01T07:25:17.261Z,2.63
2023-02-01T07:26:40.826Z,1.95
2023-02-01T07:28:04.405Z,2.78
2023-02-01T07:29:29.241Z,3.03
2023-02-01T07:30:52.935Z,2.30
2023-02-01T07:32:19.046Z,2.03
2023-02-01T07:33:42.539Z,2.50
2023-02-01T07:35:06.539Z,2.60
2023-02-01T07:36:29.997Z,2.60
2023-02-01T07:37:53.437Z,2.58
2023-02-01T07:39:16.983Z,1.60
2023-02-01T07:40:40.367Z,2.47
2023-02-01T07:42:04.031Z,2.28
2023-02-01T07:43:27.883Z,2.33
2023-02-01T07:44:55.289Z,2.08
2023-02-01T07:46:19.038Z,2.00
2023-02-01T07:47:42.477Z,2.38
2023-02-01T07:49:05.838Z,2.35
2023-02-01T07:50:29.302Z,2.70
2023-02-01T07:51:53.239Z,2.35
2023-02-01T07:53:16.770Z,1.70
2023-02-01T07:54:40.197Z,2.15
2023-02-01T07:56:04.080Z,1.73
2023-02-01T07:57:28.040Z,2.03
2023-02-01T07:58:52.085Z,1.80
2023-02-01T08:00:34.939Z,2.60
2023-02-01T08:01:58.354Z,1.92
2023-02-01T08:03:21.826Z,2.22
2023-02-01T08:04:45.233Z,2.22
2023-02-01T08:06:09.015Z,2.90
2023-02-01T08:07:32.821Z,2.10
2023-02-01T08:08:56.924Z,1.63
2023-02-01T08:10:21.420Z,1.77
2023-02-01T08:11:45.309Z,2.08
2023-02-01T08:13:08.981Z,2.05
2023-02-01T08:14:32.733Z,2.40
2023-02-01T08:16:01.943Z,2.65
2023-02-01T08:17:25.470Z,2.60
2023-02-01T08:18:49.081Z,2.33
2023-02-01T08:20:14.682Z,1.55
2023-02-01T08:21:41.057Z,2.55
2023-02-01T08:23:04.961Z,2.05
2023-02-01T08:24:28.512Z,1.35
2023-02-01T08:25:52.146Z,1.65
2023-02-01T08:27:15.744Z,1.77
2023-02-01T08:28:39.664Z,2.00
2023-02-01T08:30:03.111Z,2.05
2023-02-01T08:31:29.990Z,1.70
2023-02-01T08:32:53.549Z,1.70
2023-02-01T08:34:17.026Z,2.35
2023-02-01T08:35:44.083Z,1.98
2023-02-01T08:37:08.282Z,2.10
2023-02-01T08:38:31.889Z,2.28
2023-02-01T08:39:55.355Z,1.98
2023-02-01T08:41:21.504Z,2.13
2023-02-01T08:42:53.119Z,1.98
2023-02-01T08:44:16.642Z,2.20
2023-02-01T08:45:40.239Z,2.15
2023-02-01T08:47:06.433Z,2.38
2023-02-01T08:48:29.907Z,2.08
2023-02-01T08:49:54.345Z,1.75
2023-02-01T08:51:20.153Z,2.22
2023-02-01T08:52:43.800Z,1.40
2023-02-01T08:54:07.235Z,2.53
2023-02-01T08:55:30.715Z,2.05
2023-02-01T08:56:55.431Z,1.33
2023-02-01T08:58:18.961Z,1.83
2023-02-01T08:59:42.463Z,1.35
2023-02-01T09:01:07.135Z,1.80
2023-02-01T09:02:32.118Z,1.27
2023-02-01T09:03:55.633Z,1.17
2023-02-01T09:05:23.091Z,1.67
2023-02-01T09:06:46.757Z,1.17
2023-02-01T09:08:10.556Z,1.63
2023-02-01T09:09:34.124Z,1.15
2023-02-01T09:11:03.157Z,1.38
2023-02-01T09:12:27.080Z,1.70
2023-02-01T09:13:51.016Z,1.83
2023-02-01T09:15:14.570Z,2.08
2023-02-01T09:16:38.025Z,1.80
2023-02-01T09:18:02.875Z,1.63
2023-02-01T09:19:27.329Z,1.60
2023-02-01T09:20:51.002Z,1.13
2023-02-01T09:22:14.497Z,1.55
2023-02-01T09:23:38.212Z,1.30
2023-02-01T09:25:01.694Z,0.82
2023-02-01T09:26:32.171Z,1.02
2023-02-01T09:27:56.329Z,1.00
2023-02-01T09:29:19.851Z,0.85
2023-02-01T09:30:43.388Z,1.23
2023-02-01T09:32:07.520Z,1.10
2023-02-01T09:33:32.501Z,0.88
2023-02-01T09:34:56.130Z,0.63
2023-02-01T09:36:21.741Z,1.00
2023-02-01T09:37:45.338Z,0.80
2023-02-01T09:39:08.787Z,0.70
2023-02-01T09:40:32.302Z,0.70
2023-02-01T09:42:02.366Z,0.88
2023-02-01T09:43:39.812Z,0.73
2023-02-01T09:45:16.703Z,0.80
2023-02-01T09:46:40.144Z,1.13
2023-02-01T09:48:10.222Z,1.10
2023-02-01T09:49:38.521Z,0.65
2023-02-01T09:51:06.969Z,0.95
2023-02-01T09:52:36.958Z,0.70
2023-02-01T09:54:03.593Z,0.75
2023-02-01T09:55:33.871Z,0.30
2023-02-01T09:57:00.655Z,0.80
2023-02-01T09:58:28.375Z,0.85
2023-02-01T09:59:57.830Z,0.73
2023-02-01T10:01:24.676Z,0.60
2023-02-01T10:02:48.320Z,0.60
2023-02-01T10:04:13.993Z,0.35
2023-02-01T10:06:09.778Z,0.50
2023-02-01T10:07:39.435Z,0.88
2023-02-01T10:09:16.600Z,0.60
2023-02-01T10:10:45.844Z,0.88
2023-02-01T10:12:57.045Z,0.70
2023-02-01T10:14:47.445Z,0.93
2023-02-01T10:16:19.334Z,0.88
2023-02-01T10:17:53.983Z,0.82
2023-02-01T10:19:27.214Z,2.63
2023-02-01T10:21:03.157Z,0.65
2023-02-01T10:22:59.883Z,1.10
2023-02-01T10:24:41.997Z,1.00
2023-02-01T10:26:10.440Z,0.52
2023-02-01T10:27:37.385Z,0.95
2023-02-01T10:29:04.085Z,0.93
2023-02-01T10:30:32.330Z,0.70
2023-02-01T10:31:58.522Z,0.98
2023-02-01T10:33:27.210Z,1.23
2023-02-01T10:34:54.268Z,1.00
2023-02-01T10:36:24.180Z,0.82
2023-02-01T10:37:48.647Z,0.70
2023-02-01T10:39:13.043Z,0.80
2023-02-01T10:40:36.690Z,1.13
2023-02-01T10:42:00.259Z,1.15
2023-02-01T10:43:24.094Z,1.30
2023-02-01T10:44:49.183Z,0.77
2023-02-01T10:46:12.765Z,1.05
2023-02-01T10:47:36.203Z,1.23
2023-02-01T10:49:02.334Z,1.02
2023-02-01T10:50:35.843Z,2.08
2023-02-01T10:52:08.159Z,1.50
2023-02-01T10:53:37.354Z,1.33
2023-02-01T10:55:32.820Z,2.20
2023-02-01T10:56:56.322Z,1.63
2023-02-01T10:58:21.617Z,1.33
2023-02-01T10:59:46.003Z,1.42
2023-02-01T11:01:11.412Z,0.95
2023-02-01T11:02:37.543Z,0.65
2023-02-01T11:04:03.011Z,1.05
2023-02-01T11:05:27.503Z,0.82
2023-02-01T11:06:53.564Z,0.90
2023-02-01T11:08:18.477Z,1.45
2023-02-01T11:09:43.378Z,1.10
2023-02-01T11:11:12.216Z,1.00
2023-02-01T11:12:39.719Z,1.45
2023-02-01T11:14:18.283Z,1.55
2023-02-01T11:15:46.351Z,1.70
2023-02-01T11:17:25.945Z,2.20
2023-02-01T11:18:56.621Z,4.65
2023-02-01T11:20:22.075Z,1.65
2023-02-01T11:21:46.790Z,1.67
2023-02-01T11:23:17.033Z,1.75
2023-02-01T11:24:40.845Z,1.05
2023-02-01T11:26:10.052Z,1.83
2023-02-01T11:27:40.293Z,3.00
2023-02-01T11:29:12.173Z,1.73
2023-02-01T11:30:39.208Z,1.23
2023-02-01T11:32:02.838Z,1.60
2023-02-01T11:33:30.769Z,1.33
2023-02-01T11:34:56.786Z,1.15
2023-02-01T11:36:21.529Z,1.40
2023-02-01T11:37:45.849Z,2.38
2023-02-01T11:39:28.172Z,2.20
2023-02-01T11:40:51.936Z,1.52
2023-02-01T11:42:18.198Z,2.13
2023-02-01T11:43:53.617Z,2.97
2023-02-01T11:45:22.706Z,1.40
2023-02-01T11:46:47.068Z,2.40
2023-02-01T11:48:15.020Z,1.77
2023-02-01T11:49:41.561Z,1.80
2023-02-01T11:51:24.121Z,2.28
2023-02-01T11:52:59.809Z,2.20
2023-02-01T11:54:51.361Z,1.50
2023-02-01T11:56:21.380Z,1.30
2023-02-01T11:57:58.330Z,2.10
2023-02-01T11:59:37.435Z,1.38
2023-02-01T12:01:14.776Z,1.40
2023-02-01T12:03:06.717Z,1.50
2023-02-01T12:05:08.755Z,1.30
2023-02-01T12:06:40.844Z,1.40
2023-02-01T12:08:18.422Z,1.60
2023-02-01T12:09:51.533Z,1.63
2023-02-01T12:11:31.832Z,1.80
2023-02-01T12:13:04.743Z,1.63
2023-02-01T12:14:47.243Z,1.98
2023-02-01T12:16:19.738Z,1.15
2023-02-01T12:18:01.839Z,1.83
2023-02-01T12:19:49.905Z,1.40
2023-02-01T12:21:34.692Z,1.50
2023-02-01T12:23:08.565Z,1.88
2023-02-01T12:24:53.661Z,2.45
2023-02-01T12:26:50.233Z,2.78
2023-02-01T12:28:33.820Z,2.40
2023-02-01T12:30:10.078Z,2.58
2023-02-01T12:31:51.052Z,2.58
2023-02-01T12:33:20.387Z,4.95
2023-02-01T12:35:00.898Z,1.33
2023-02-01T12:36:31.479Z,3.33
2023-02-01T12:38:05.139Z,1.90
2023-02-01T12:39:33.692Z,2.72
2023-02-01T12:41:09.551Z,2.50
2023-02-01T12:42:36.597Z,3.90
2023-02-01T12:44:07.620Z,2.83
2023-02-01T12:45:36.957Z,2.72
2023-02-01T12:47:02.721Z,2.95
2023-02-01T12:48:31.880Z,4.05
2023-02-01T12:49:59.815Z,3.88
2023-02-01T12:51:26.879Z,2.72
2023-02-01T12:52:52.319Z,3.28
2023-02-01T12:54:22.095Z,3.55
2023-02-01T12:55:50.687Z,2.03
2023-02-01T12:57:17.222Z,2.17
2023-02-01T12:58:43.879Z,2.63
2023-02-01T13:00:23.094Z,3.60
2023-02-01T13:01:53.139Z,3.85
2023-02-01T13:03:26.342Z,2.42
2023-02-01T13:05:00.715Z,2.30
2023-02-01T13:06:28.580Z,1.83
2023-02-01T13:07:55.804Z,1.88
2023-02-01T13:09:25.151Z,1.83
2023-02-01T13:10:50.894Z,2.05
2023-02-01T13:12:17.975Z,1.70
2023-02-01T13:13:48.460Z,1.92
2023-02-01T13:15:16.854Z,1.58
2023-02-01T13:16:42.890Z,1.30
2023-02-01T13:18:07.923Z,1.42
2023-02-01T13:19:32.175Z,1.40
2023-02-01T13:21:00.704Z,1.20
2023-02-01T13:22:27.918Z,1.38
2023-02-01T13:23:52.252Z,1.52
2023-02-01T13:25:17.965Z,1.60
2023-02-01T13:26:41.601Z,1.40
2023-02-01T13:28:09.341Z,1.27
2023-02-01T13:29:33.131Z,1.63
2023-02-01T13:31:08.365Z,1.88
2023-02-01T13:33:51.689Z,2.17
2023-02-01T13:35:01.069Z,1.58
2023-02-01T13:36:50.711Z,1.55
2023-02-01T13:38:48.855Z,2.08
2023-02-01T13:40:26.057Z,2.08
2023-02-01T13:41:55.846Z,3.10
2023-02-01T13:43:24.161Z,2.08
2023-02-01T13:44:49.496Z,2.03
2023-02-01T13:46:16.034Z,1.38
2023-02-01T13:47:44.017Z,2.05
2023-02-01T13:49:07.682Z,2.00
2023-02-01T13:50:35.050Z,2.50
2023-02-01T13:51:59.707Z,1.50
2023-02-01T13:53:28.839Z,1.67
2023-02-01T13:55:04.276Z,1.98
2023-02-01T13:56:31.261Z,2.22
2023-02-01T13:58:03.733Z,2.45
2023-02-01T13:59:55.846Z,1.85
2023-02-01T14:01:37.927Z,2.00
2023-02-01T14:03:19.839Z,2.83
2023-02-01T14:04:51.031Z,1.77
2023-02-01T14:06:45.112Z,1.60
2023-02-01T14:08:14.797Z,2.45
2023-02-01T14:09:39.727Z,2.78
2023-02-01T14:11:02.355Z,3.10
2023-02-01T14:12:47.533Z,3.40
2023-02-01T14:14:45.029Z,4.10
2023-02-01T14:16:17.110Z,2.60
2023-02-01T14:17:42.110Z,3.20
2023-02-01T14:19:11.331Z,2.45
2023-02-01T14:20:44.977Z,2.42
2023-02-01T14:22:35.806Z,1.85
2023-02-01T14:24:02.315Z,1.95
2023-02-01T14:25:25.166Z,2.08
2023-02-01T14:26:50.658Z,3.00
2023-02-01T14:28:20.823Z,2.17
2023-02-01T14:29:46.951Z,1.85
2023-02-01T14:31:20.122Z,2.03
2023-02-01T14:32:47.648Z,2.75
2023-02-01T14:34:28.760Z,2.15
2023-02-01T14:36:08.873Z,2.88
2023-02-01T14:37:36.403Z,1.30
2023-02-01T14:39:00.708Z,2.45
2023-02-01T14:40:28.872Z,2.97
2023-02-01T14:42:02.496Z,1.92
2023-02-01T14:43:53.601Z,3.63
2023-02-01T14:45:52.303Z,3.58
2023-02-01T14:47:36.204Z,2.35
2023-02-01T14:49:01.111Z,2.47
2023-02-01T14:50:34.441Z,3.13
2023-02-01T14:51:59.681Z,2.78
2023-02-01T14:53:25.630Z,2.53
2023-02-01T14:54:50.826Z,3.10
2023-02-01T14:56:21.184Z,2.50
2023-02-01T14:57:45.416Z,2.03
2023-02-01T14:59:11.244Z,1.90
2023-02-01T15:00:35.194Z,3.47
2023-02-01T15:02:01.252Z,2.38
2023-02-01T15:03:50.844Z,2.17
2023-02-01T15:05:34.969Z,2.85
2023-02-01T15:06:59.605Z,2.72
2023-02-01T15:08:28.933Z,1.85
2023-02-01T15:09:56.786Z,1.10
2023-02-01T15:11:20.173Z,1.65
2023-02-01T15:12:45.396Z,0.80
2023-02-01T15:14:16.764Z,1.20
2023-02-01T15:15:40.265Z,1.42
2023-02-01T15:17:04.393Z,1.17
2023-02-01T15:18:27.825Z,1.10
2023-02-01T15:19:59.675Z,1.23
2023-02-01T15:21:30.379Z,1.20
2023-02-01T15:22:58.327Z,1.30
2023-02-01T15:24:23.724Z,1.65
2023-02-01T15:25:49.309Z,1.00
2023-02-01T15:27:13.055Z,1.70
2023-02-01T15:28:36.895Z,1.20
2023-02-01T15:30:08.651Z,0.95
2023-02-01T15:31:37.487Z,1.38
2023-02-01T15:33:09.149Z,1.30
2023-02-01T15:34:47.846Z,1.27
2023-02-01T15:36:13.707Z,1.55
2023-02-01T15:37:38.502Z,1.58
2023-02-01T15:39:21.041Z,0.82
2023-02-01T15:40:56.797Z,1.02
2023-02-01T15:42:20.989Z,1.00
2023-02-01T15:43:48.938Z,1.88
2023-02-01T15:45:19.519Z,1.02
2023-02-01T15:46:44.901Z,1.30
2023-02-01T15:48:13.569Z,1.23
2023-02-01T15:49:40.892Z,1.02
2023-02-01T15:51:04.881Z,1.35
2023-02-01T15:52:36.519Z,1.33
2023-02-01T15:54:03.611Z,0.75
2023-02-01T15:55:35.030Z,1.48
2023-02-01T15:56:59.607Z,1.17
2023-02-01T15:58:24.818Z,1.33
2023-02-01T15:59:48.426Z,0.93
2023-02-01T16:01:14.714Z,1.55
2023-02-01T16:02:40.026Z,1.30
2023-02-01T16:04:16.557Z,1.50
2023-02-01T16:05:43.469Z,1.05
2023-02-01T16:07:27.024Z,0.80
2023-02-01T16:08:54.983Z,1.00
2023-02-01T16:10:28.731Z,0.95
2023-02-01T16:11:57.376Z,1.23
2023-02-01T16:13:22.097Z,1.00
2023-02-01T16:14:45.600Z,0.70
2023-02-01T16:16:14.869Z,1.40
2023-02-01T16:17:38.484Z,0.70
2023-02-01T16:19:01.960Z,0.60
2023-02-01T16:20:25.642Z,0.80
2023-02-01T16:21:49.896Z,0.65
2023-02-01T16:23:12.561Z,0.38
2023-02-01T16:24:36.234Z,0.40
2023-02-01T16:26:01.133Z,0.57
2023-02-01T16:27:24.860Z,0.65
2023-02-01T16:28:49.054Z,0.75
2023-02-01T16:30:13.182Z,1.77
2023-02-01T16:31:39.077Z,0.45
2023-02-01T16:33:05.894Z,0.40
2023-02-01T16:34:29.388Z,0.63
2023-02-01T16:35:52.643Z,0.40
2023-02-01T16:37:17.331Z,1.20
2023-02-01T16:38:40.946Z,0.57
2023-02-01T16:40:04.829Z,0.80
2023-02-01T16:41:29.945Z,0.57
2023-02-01T16:42:56.223Z,0.40
2023-02-01T16:44:19.674Z,0.50
2023-02-01T16:45:44.732Z,0.50
2023-02-01T16:47:16.033Z,0.30
2023-02-01T16:48:40.507Z,0.82
2023-02-01T16:50:17.141Z,0.70
2023-02-01T16:51:45.347Z,0.25
2023-02-01T16:53:09.530Z,0.40
2023-02-01T16:54:32.939Z,0.38
2023-02-01T16:55:58.241Z,0.90
2023-02-01T16:57:24.331Z,0.30
2023-02-01T16:58:48.132Z,1.15
2023-02-01T17:00:24.022Z,1.10
2023-02-01T17:01:48.717Z,1.05
2023-02-01T17:03:17.563Z,0.80
2023-02-01T17:04:41.338Z,0.93
2023-02-01T17:06:05.322Z,0.52
2023-02-01T17:07:29.940Z,1.15
2023-02-01T17:08:54.861Z,1.02
2023-02-01T17:10:34.164Z,1.40
2023-02-01T17:11:58.278Z,0.50
2023-02-01T17:13:23.119Z,0.68
2023-02-01T17:14:46.588Z,0.70
2023-02-01T17:16:21.271Z,0.88
2023-02-01T17:17:45.212Z,0.82
2023-02-01T17:19:11.804Z,1.48
2023-02-01T17:20:36.363Z,1.90
2023-02-01T17:22:01.280Z,0.43
2023-02-01T17:23:25.014Z,0.50
2023-02-01T17:24:49.263Z,3.00
2023-02-01T17:26:13.133Z,2.42
2023-02-01T17:27:38.784Z,0.60
2023-02-01T17:29:03.752Z,5.07
2023-02-01T17:30:27.238Z,0.90
2023-02-01T17:31:53.293Z,1.85
2023-02-01T17:33:23.128Z,1.00
2023-02-01T17:34:46.901Z,1.00
2023-02-01T17:36:14.766Z,0.60
2023-02-01T17:37:38.503Z,0.77
2023-02-01T17:39:06.001Z,0.82
2023-02-01T17:40:30.096Z,0.93
2023-02-01T17:41:53.593Z,0.90
2023-02-01T17:43:20.255Z,1.38
2023-02-01T17:44:45.474Z,0.75
2023-02-01T17:46:13.986Z,1.35
2023-02-01T17:47:38.805Z,0.88
2023-02-01T17:49:03.722Z,1.27
2023-02-01T17:50:28.214Z,1.70
2023-02-01T17:51:51.878Z,2.10
2023-02-01T17:53:16.771Z,1.20
2023-02-01T17:54:40.192Z,1.70
2023-02-01T17:56:03.959Z,1.38
2023-02-01T17:57:27.387Z,1.08
2023-02-01T17:58:51.188Z,1.48
2023-02-01T18:00:17.346Z,0.70
2023-02-01T18:01:41.246Z,2.28
2023-02-01T18:03:05.307Z,1.10
2023-02-01T18:04:28.815Z,1.13
2023-02-01T18:05:53.675Z,2.83
2023-02-01T18:07:17.255Z,1.50
2023-02-01T18:08:41.679Z,1.83
2023-02-01T18:10:05.616Z,0.88
2023-02-01T18:11:32.893Z,1.30
2023-02-01T18:12:57.421Z,2.20
2023-02-01T18:14:21.088Z,4.30
2023-02-01T18:15:46.004Z,4.07
2023-02-01T18:17:10.285Z,2.45
2023-02-01T18:18:34.098Z,1.30
2023-02-01T18:19:59.923Z,1.13
2023-02-01T18:21:24.320Z,1.00
2023-02-01T18:22:49.631Z,0.90
2023-02-01T18:24:14.781Z,1.20
2023-02-01T18:25:38.640Z,0.93
2023-02-01T18:27:02.403Z,1.25
2023-02-01T18:28:25.906Z,1.30
2023-02-01T18:29:49.594Z,1.42
2023-02-01T18:31:23.096Z,1.20
2023-02-01T18:32:46.984Z,1.20
2023-02-01T18:34:16.796Z,1.42
2023-02-01T18:35:40.261Z,1.20
2023-02-01T18:37:03.824Z,1.42
2023-02-01T18:38:27.303Z,1.50
2023-02-01T18:39:50.165Z,1.10
2023-02-01T18:41:16.106Z,1.30
2023-02-01T18:42:38.619Z,1.13
2023-02-01T18:44:02.102Z,1.63
2023-02-01T18:45:37.464Z,1.20
2023-02-01T18:47:02.384Z,1.20
2023-02-01T18:48:26.026Z,1.15
2023-02-01T18:49:49.495Z,1.50
2023-02-01T18:51:14.063Z,2.42
2023-02-01T18:52:37.619Z,1.13
2023-02-01T18:54:01.324Z,1.50
2023-02-01T18:55:25.636Z,1.00
2023-02-01T18:56:49.195Z,1.45
2023-02-01T18:58:15.979Z,1.20
2023-02-01T18:59:39.859Z,1.30
2023-02-01T19:01:08.978Z,1.00
2023-02-01T19:02:36.743Z,1.35
2023-02-01T19:04:09.175Z,1.20
2023-02-01T19:05:48.164Z,1.15
2023-02-01T19:07:11.623Z,1.08
2023-02-01T19:08:37.574Z,1.42
2023-02-01T19:10:01.345Z,1.42
2023-02-01T19:11:25.071Z,1.17
2023-02-01T19:12:48.574Z,1.20
2023-02-01T19:14:12.067Z,1.40
2023-02-01T19:15:40.115Z,1.38
2023-02-01T19:17:03.762Z,1.52
2023-02-01T19:18:28.760Z,1.95
2023-02-01T19:19:52.399Z,1.60
2023-02-01T19:21:15.832Z,2.10
2023-02-01T19:22:40.559Z,1.33
2023-02-01T19:24:04.155Z,1.20
2023-02-01T19:25:29.960Z,1.50
2023-02-01T19:26:53.706Z,1.17
2023-02-01T19:28:17.656Z,1.23
2023-02-01T19:29:43.081Z,1.60
2023-02-01T19:31:08.677Z,1.17
2023-02-01T19:32:32.303Z,1.45
2023-02-01T19:33:57.521Z,0.80
2023-02-01T19:35:22.504Z,1.33
2023-02-01T19:36:46.067Z,1.20
2023-02-01T19:38:09.944Z,1.95
2023-02-01T19:39:33.564Z,0.90
2023-02-01T19:41:00.121Z,1.38
2023-02-01T19:42:23.831Z,1.20
2023-02-01T19:43:47.434Z,1.33
2023-02-01T19:45:11.801Z,1.13
2023-02-01T19:46:35.645Z,1.10
2023-02-01T19:47:59.550Z,1.25
2023-02-01T19:49:24.393Z,1.75
2023-02-01T19:50:48.243Z,1.77
2023-02-01T19:52:12.141Z,1.70
2023-02-01T19:53:35.625Z,0.85
2023-02-01T19:55:00.990Z,1.70
2023-02-01T19:56:24.735Z,2.45
2023-02-01T19:57:49.053Z,1.95
2023-02-01T19:59:13.612Z,1.35
2023-02-01T20:00:36.459Z,1.58
2023-02-01T20:01:59.100Z,1.60
2023-02-01T20:03:22.759Z,1.20
2023-02-01T20:04:47.566Z,2.03
2023-02-01T20:06:11.376Z,1.00
2023-02-01T20:07:34.897Z,2.00
2023-02-01T20:08:58.706Z,1.42
2023-02-01T20:10:22.237Z,1.20
2023-02-01T20:11:45.849Z,1.45
2023-02-01T20:13:09.393Z,1.50
2023-02-01T20:14:33.070Z,1.63
2023-02-01T20:16:00.076Z,1.95
2023-02-01T20:17:26.282Z,2.03
2023-02-01T20:18:50.016Z,1.30
2023-02-01T20:20:15.372Z,1.27
2023-02-01T20:21:39.267Z,1.17
2023-02-01T20:23:02.894Z,1.33
2023-02-01T20:24:27.897Z,2.15
2023-02-01T20:25:52.158Z,1.67
2023-02-01T20:27:15.561Z,1.58
2023-02-01T20:28:39.506Z,1.35
2023-02-01T20:30:02.994Z,2.13
2023-02-01T20:31:28.799Z,1.63
2023-02-01T20:32:52.915Z,1.00
2023-02-01T20:34:16.437Z,1.27
2023-02-01T20:35:46.169Z,1.02
2023-02-01T20:37:09.660Z,1.20
2023-02-01T20:38:33.143Z,1.65
2023-02-01T20:39:56.693Z,1.58
2023-02-01T20:41:20.166Z,1.70
2023-02-01T20:42:44.516Z,1.67
2023-02-01T20:44:08.076Z,2.13
2023-02-01T20:45:31.527Z,1.52
2023-02-01T20:46:55.247Z,1.25
2023-02-01T20:48:18.808Z,1.15
2023-02-01T20:49:42.318Z,1.08
2023-02-01T20:51:07.399Z,1.38
2023-02-01T20:52:30.967Z,2.03
2023-02-01T20:53:55.217Z,1.80
2023-02-01T20:55:17.962Z,1.45
2023-02-01T20:56:41.457Z,1.13
2023-02-01T20:58:05.277Z,1.65
2023-02-01T20:59:28.928Z,1.23
2023-02-01T21:00:52.642Z,1.38
2023-02-01T21:02:16.176Z,1.17
2023-02-01T21:03:40.217Z,1.90
2023-02-01T21:05:03.718Z,1.90
2023-02-01T21:06:28.797Z,1.50
2023-02-01T21:07:54.635Z,1.55
2023-02-01T21:09:18.707Z,0.85
2023-02-01T21:10:42.406Z,1.27
2023-02-01T21:12:06.243Z,1.17
2023-02-01T21:13:31.407Z,0.82
2023-02-01T21:14:56.568Z,1.38
2023-02-01T21:16:21.533Z,1.83
2023-02-01T21:17:44.926Z,1.02
2023-02-01T21:19:09.851Z,2.13
2023-02-01T21:20:33.330Z,1.27
2023-02-01T21:21:58.212Z,1.15
2023-02-01T21:23:21.720Z,1.40
2023-02-01T21:24:45.220Z,1.17
2023-02-01T21:26:10.732Z,1.80
2023-02-01T21:27:34.211Z,1.77
2023-02-01T21:28:58.342Z,1.15
2023-02-01T21:30:20.893Z,1.65
2023-02-01T21:31:44.920Z,1.38
2023-02-01T21:33:08.881Z,1.20
2023-02-01T21:34:32.337Z,1.50
2023-02-01T21:35:55.815Z,1.83
2023-02-01T21:37:25.672Z,1.38
2023-02-01T21:38:51.351Z,1.73
2023-02-01T21:40:14.690Z,1.20
2023-02-01T21:41:56.238Z,1.33
2023-02-01T21:43:19.760Z,1.45
2023-02-01T21:44:46.075Z,1.58
2023-02-01T21:46:09.577Z,1.55
2023-02-01T21:47:32.990Z,1.33
2023-02-01T21:49:04.036Z,1.50
2023-02-01T21:50:28.993Z,1.50
2023-02-01T21:51:52.681Z,1.45
2023-02-01T21:53:17.466Z,1.50
2023-02-01T21:54:40.082Z,1.67
2023-02-01T21:56:03.509Z,1.42
2023-02-01T21:57:27.302Z,1.88
2023-02-01T21:58:50.830Z,1.33
2023-02-01T22:00:15.688Z,1.05
2023-02-01T22:01:39.620Z,1.40
2023-02-01T22:03:03.033Z,1.83
2023-02-01T22:04:26.633Z,1.50
2023-02-01T22:05:51.715Z,1.40
2023-02-01T22:07:15.173Z,1.55
2023-02-01T22:08:39.280Z,1.58
2023-02-01T22:10:03.168Z,1.70
2023-02-01T22:11:27.378Z,2.05
2023-02-01T22:12:50.836Z,0.98
2023-02-01T22:14:14.638Z,1.45
2023-02-01T22:15:38.259Z,1.20
2023-02-01T22:17:01.757Z,1.75
2023-02-01T22:18:25.218Z,1.20
2023-02-01T22:19:48.651Z,1.73
2023-02-01T22:21:11.503Z,1.73
2023-02-01T22:22:34.961Z,1.20
2023-02-01T22:24:00.339Z,1.23
2023-02-01T22:25:24.634Z,1.38
2023-02-01T22:26:47.499Z,0.90
2023-02-01T22:28:30.883Z,1.13
2023-02-01T22:29:56.946Z,1.02
2023-02-01T22:31:19.839Z,1.45
2023-02-01T22:32:43.322Z,1.10
2023-02-01T22:34:06.816Z,1.23
2023-02-01T22:35:30.348Z,1.70
2023-02-01T22:36:52.853Z,1.40
2023-02-01T22:38:16.288Z,1.55
2023-02-01T22:39:41.506Z,1.05
2023-02-01T22:41:05.789Z,1.20
2023-02-01T22:42:29.343Z,1.10
2023-02-01T22:43:52.868Z,1.38
2023-02-01T22:45:16.283Z,1.55
2023-02-01T22:46:40.124Z,1.10
2023-02-01T22:48:03.529Z,1.13
2023-02-01T22:49:26.991Z,1.40
2023-02-01T22:50:49.412Z,1.42
2023-02-01T22:52:13.133Z,1.60
2023-02-01T22:53:35.620Z,1.23